sensor_id;sensor_type;location;lat;lon;timestamp;temperature;humidity
57566;DHT22;63999;43.882;-0.310;2023-02-28T00:02:20;4.40;60.00
57566;DHT22;63999;43.882;-0.310;2023-02-28T00:04:46;4.40;60.30
57566;DHT22;63999;43.882;-0.310;2023-02-28T00:07:27;4.30;60.40
57566;DHT22;63999;43.882;-0.310;2023-02-28T00:09:53;4.30;60.00
57566;DHT22;63999;43.882;-0.310;2023-02-28T00:12:19;4.30;60.40
57566;DHT22;63999;43.882;-0.310;2023-02-28T00:14:44;4.30;60.20
57566;DHT22;63999;43.882;-0.310;2023-02-28T00:17:10;4.30;60.20
57566;DHT22;63999;43.882;-0.310;2023-02-28T00:19:36;4.30;60.50
57566;DHT22;63999;43.882;-0.310;2023-02-28T00:22:02;4.30;60.50
57566;DHT22;63999;43.882;-0.310;2023-02-28T00:24:27;4.30;60.20
57566;DHT22;63999;43.882;-0.310;2023-02-28T00:26:53;4.30;60.50
57566;DHT22;63999;43.882;-0.310;2023-02-28T00:29:19;4.30;60.50
57566;DHT22;63999;43.882;-0.310;2023-02-28T00:31:45;4.30;60.30
57566;DHT22;63999;43.882;-0.310;2023-02-28T00:34:10;4.30;60.50
57566;DHT22;63999;43.882;-0.310;2023-02-28T00:36:36;4.30;60.30
57566;DHT22;63999;43.882;-0.310;2023-02-28T00:39:02;4.40;60.70
57566;DHT22;63999;43.882;-0.310;2023-02-28T00:41:28;4.40;60.70
57566;DHT22;63999;43.882;-0.310;2023-02-28T00:43:53;4.40;60.40
57566;DHT22;63999;43.882;-0.310;2023-02-28T00:46:19;4.30;60.70
57566;DHT22;63999;43.882;-0.310;2023-02-28T00:48:45;4.30;60.50
57566;DHT22;63999;43.882;-0.310;2023-02-28T00:51:11;4.30;60.50
57566;DHT22;63999;43.882;-0.310;2023-02-28T00:53:36;4.30;60.70
57566;DHT22;63999;43.882;-0.310;2023-02-28T00:56:03;4.30;60.60
57566;DHT22;63999;43.882;-0.310;2023-02-28T00:58:29;4.30;60.70
57566;DHT22;63999;43.882;-0.310;2023-02-28T01:00:55;4.30;60.60
57566;DHT22;63999;43.882;-0.310;2023-02-28T01:03:21;4.30;60.30
57566;DHT22;63999;43.882;-0.310;2023-02-28T01:05:48;4.30;60.80
57566;DHT22;63999;43.882;-0.310;2023-02-28T01:08:14;4.30;60.80
57566;DHT22;63999;43.882;-0.310;2023-02-28T01:10:40;4.30;60.80
57566;DHT22;63999;43.882;-0.310;2023-02-28T01:13:06;4.30;60.70
57566;DHT22;63999;43.882;-0.310;2023-02-28T01:15:32;4.30;60.80
57566;DHT22;63999;43.882;-0.310;2023-02-28T01:17:59;4.30;60.80
57566;DHT22;63999;43.882;-0.310;2023-02-28T01:20:25;4.30;60.90
57566;DHT22;63999;43.882;-0.310;2023-02-28T01:22:51;4.30;60.50
57566;DHT22;63999;43.882;-0.310;2023-02-28T01:25:17;4.30;60.80
57566;DHT22;63999;43.882;-0.310;2023-02-28T01:27:42;4.30;60.90
57566;DHT22;63999;43.882;-0.310;2023-02-28T01:30:09;4.20;60.90
57566;DHT22;63999;43.882;-0.310;2023-02-28T01:32:36;4.30;60.90
57566;DHT22;63999;43.882;-0.310;2023-02-28T01:35:01;4.30;60.60
57566;DHT22;63999;43.882;-0.310;2023-02-28T01:37:27;4.20;60.70
57566;DHT22;63999;43.882;-0.310;2023-02-28T01:39:53;4.20;60.80
57566;DHT22;63999;43.882;-0.310;2023-02-28T01:42:19;4.20;60.40
57566;DHT22;63999;43.882;-0.310;2023-02-28T01:45:01;4.20;60.60
57566;DHT22;63999;43.882;-0.310;2023-02-28T01:47:38;4.20;60.40
57566;DHT22;63999;43.882;-0.310;2023-02-28T01:50:09;4.30;60.70
57566;DHT22;63999;43.882;-0.310;2023-02-28T01:52:38;4.30;61.10
57566;DHT22;63999;43.882;-0.310;2023-02-28T01:55:07;4.30;61.10
57566;DHT22;63999;43.882;-0.310;2023-02-28T01:57:45;4.30;61.00
57566;DHT22;63999;43.882;-0.310;2023-02-28T02:00:14;4.30;60.70
57566;DHT22;63999;43.882;-0.310;2023-02-28T02:02:47;4.30;60.70
57566;DHT22;63999;43.882;-0.310;2023-02-28T02:05:29;4.30;60.50
57566;DHT22;63999;43.882;-0.310;2023-02-28T02:08:08;4.30;60.50
57566;DHT22;63999;43.882;-0.310;2023-02-28T02:10:50;4.30;60.50
57566;DHT22;63999;43.882;-0.310;2023-02-28T02:18:54;4.30;60.60
57566;DHT22;63999;43.882;-0.310;2023-02-28T02:38:33;4.20;60.70
57566;DHT22;63999;43.882;-0.310;2023-02-28T02:43:51;4.20;60.80
57566;DHT22;63999;43.882;-0.310;2023-02-28T02:46:32;4.20;60.80
57566;DHT22;63999;43.882;-0.310;2023-02-28T02:49:01;4.20;60.90
57566;DHT22;63999;43.882;-0.310;2023-02-28T02:51:31;4.10;61.00
57566;DHT22;63999;43.882;-0.310;2023-02-28T02:54:05;4.20;61.30
57566;DHT22;63999;43.882;-0.310;2023-02-28T02:56:34;4.20;60.90
57566;DHT22;63999;43.882;-0.310;2023-02-28T02:59:04;4.20;60.80
57566;DHT22;63999;43.882;-0.310;2023-02-28T03:01:32;4.20;60.80
57566;DHT22;63999;43.882;-0.310;2023-02-28T03:04:09;4.10;60.90
57566;DHT22;63999;43.882;-0.310;2023-02-28T03:06:36;4.20;61.20
57566;DHT22;63999;43.882;-0.310;2023-02-28T03:09:02;4.10;61.50
57566;DHT22;63999;43.882;-0.310;2023-02-28T03:11:30;4.10;61.50
57566;DHT22;63999;43.882;-0.310;2023-02-28T03:26:02;4.10;61.40
57566;DHT22;63999;43.882;-0.310;2023-02-28T03:31:27;4.00;61.70
57566;DHT22;63999;43.882;-0.310;2023-02-28T03:34:08;4.00;61.70
57566;DHT22;63999;43.882;-0.310;2023-02-28T03:36:53;4.00;62.00
57566;DHT22;63999;43.882;-0.310;2023-02-28T03:39:24;4.00;61.90
57566;DHT22;63999;43.882;-0.310;2023-02-28T03:41:56;4.00;61.90
57566;DHT22;63999;43.882;-0.310;2023-02-28T03:44:30;4.00;62.00
57566;DHT22;63999;43.882;-0.310;2023-02-28T03:47:21;3.90;61.90
57566;DHT22;63999;43.882;-0.310;2023-02-28T03:49:56;3.90;62.00
57566;DHT22;63999;43.882;-0.310;2023-02-28T03:52:27;3.90;61.60
57566;DHT22;63999;43.882;-0.310;2023-02-28T03:54:58;3.90;61.80
57566;DHT22;63999;43.882;-0.310;2023-02-28T03:57:58;3.90;61.80
57566;DHT22;63999;43.882;-0.310;2023-02-28T04:00:34;3.90;61.60
57566;DHT22;63999;43.882;-0.310;2023-02-28T04:03:00;3.90;61.70
57566;DHT22;63999;43.882;-0.310;2023-02-28T04:05:27;3.90;61.80
57566;DHT22;63999;43.882;-0.310;2023-02-28T04:07:53;3.90;61.50
57566;DHT22;63999;43.882;-0.310;2023-02-28T04:10:20;3.90;61.60
57566;DHT22;63999;43.882;-0.310;2023-02-28T04:12:45;3.90;61.60
57566;DHT22;63999;43.882;-0.310;2023-02-28T04:15:11;3.90;61.90
57566;DHT22;63999;43.882;-0.310;2023-02-28T04:17:37;3.80;61.80
57566;DHT22;63999;43.882;-0.310;2023-02-28T04:20:03;3.80;62.00
57566;DHT22;63999;43.882;-0.310;2023-02-28T04:22:34;3.80;61.70
57566;DHT22;63999;43.882;-0.310;2023-02-28T04:25:00;3.80;61.80
57566;DHT22;63999;43.882;-0.310;2023-02-28T04:27:27;3.80;61.70
57566;DHT22;63999;43.882;-0.310;2023-02-28T04:29:53;3.80;61.60
57566;DHT22;63999;43.882;-0.310;2023-02-28T04:32:19;3.70;61.70
57566;DHT22;63999;43.882;-0.310;2023-02-28T04:34:44;3.70;61.60
57566;DHT22;63999;43.882;-0.310;2023-02-28T04:37:10;3.70;61.80
57566;DHT22;63999;43.882;-0.310;2023-02-28T04:39:36;3.70;61.70
57566;DHT22;63999;43.882;-0.310;2023-02-28T04:42:03;3.70;61.80
57566;DHT22;63999;43.882;-0.310;2023-02-28T04:44:28;3.70;61.30
57566;DHT22;63999;43.882;-0.310;2023-02-28T04:46:54;3.70;62.00
57566;DHT22;63999;43.882;-0.310;2023-02-28T04:49:20;3.60;61.70
57566;DHT22;63999;43.882;-0.310;2023-02-28T04:51:46;3.60;62.00
57566;DHT22;63999;43.882;-0.310;2023-02-28T04:54:11;3.60;61.80
57566;DHT22;63999;43.882;-0.310;2023-02-28T04:56:38;3.60;61.30
57566;DHT22;63999;43.882;-0.310;2023-02-28T04:59:04;3.60;61.90
57566;DHT22;63999;43.882;-0.310;2023-02-28T05:01:34;3.60;61.80
57566;DHT22;63999;43.882;-0.310;2023-02-28T05:04:01;3.60;61.90
57566;DHT22;63999;43.882;-0.310;2023-02-28T05:06:29;3.60;62.00
57566;DHT22;63999;43.882;-0.310;2023-02-28T05:08:56;3.50;62.00
57566;DHT22;63999;43.882;-0.310;2023-02-28T05:11:29;3.50;62.00
57566;DHT22;63999;43.882;-0.310;2023-02-28T05:13:59;3.50;62.10
57566;DHT22;63999;43.882;-0.310;2023-02-28T05:16:24;3.50;62.10
57566;DHT22;63999;43.882;-0.310;2023-02-28T05:18:50;3.50;62.10
57566;DHT22;63999;43.882;-0.310;2023-02-28T05:21:36;3.50;62.00
57566;DHT22;63999;43.882;-0.310;2023-02-28T05:24:05;3.50;62.20
57566;DHT22;63999;43.882;-0.310;2023-02-28T05:26:39;3.50;62.20
57566;DHT22;63999;43.882;-0.310;2023-02-28T05:29:05;3.50;62.20
57566;DHT22;63999;43.882;-0.310;2023-02-28T05:31:31;3.50;62.10
57566;DHT22;63999;43.882;-0.310;2023-02-28T05:33:57;3.50;62.20
57566;DHT22;63999;43.882;-0.310;2023-02-28T05:36:23;3.50;62.00
57566;DHT22;63999;43.882;-0.310;2023-02-28T05:38:50;3.50;62.10
57566;DHT22;63999;43.882;-0.310;2023-02-28T05:41:17;3.40;62.20
57566;DHT22;63999;43.882;-0.310;2023-02-28T05:43:44;3.40;62.20
57566;DHT22;63999;43.882;-0.310;2023-02-28T05:46:12;3.50;62.20
57566;DHT22;63999;43.882;-0.310;2023-02-28T05:48:39;3.40;62.20
57566;DHT22;63999;43.882;-0.310;2023-02-28T05:51:07;3.40;62.20
57566;DHT22;63999;43.882;-0.310;2023-02-28T05:53:33;3.40;62.00
57566;DHT22;63999;43.882;-0.310;2023-02-28T05:55:59;3.40;62.10
57566;DHT22;63999;43.882;-0.310;2023-02-28T05:58:25;3.40;62.20
57566;DHT22;63999;43.882;-0.310;2023-02-28T06:00:54;3.30;62.20
57566;DHT22;63999;43.882;-0.310;2023-02-28T06:03:20;3.30;62.10
57566;DHT22;63999;43.882;-0.310;2023-02-28T06:05:46;3.30;62.30
57566;DHT22;63999;43.882;-0.310;2023-02-28T06:08:12;3.30;62.00
57566;DHT22;63999;43.882;-0.310;2023-02-28T06:10:37;3.30;62.10
57566;DHT22;63999;43.882;-0.310;2023-02-28T06:13:06;3.30;62.00
57566;DHT22;63999;43.882;-0.310;2023-02-28T06:15:32;3.30;61.80
57566;DHT22;63999;43.882;-0.310;2023-02-28T06:17:58;3.30;61.80
57566;DHT22;63999;43.882;-0.310;2023-02-28T06:20:25;3.30;61.70
57566;DHT22;63999;43.882;-0.310;2023-02-28T06:22:55;3.40;62.10
57566;DHT22;63999;43.882;-0.310;2023-02-28T06:25:21;3.50;61.80
57566;DHT22;63999;43.882;-0.310;2023-02-28T06:27:47;3.50;61.90
57566;DHT22;63999;43.882;-0.310;2023-02-28T06:30:13;3.50;61.40
57566;DHT22;63999;43.882;-0.310;2023-02-28T06:32:42;3.60;61.70
57566;DHT22;63999;43.882;-0.310;2023-02-28T06:35:08;3.50;61.50
57566;DHT22;63999;43.882;-0.310;2023-02-28T06:37:34;3.50;61.40
57566;DHT22;63999;43.882;-0.310;2023-02-28T06:40:00;3.50;61.30
57566;DHT22;63999;43.882;-0.310;2023-02-28T06:42:26;3.50;61.50
57566;DHT22;63999;43.882;-0.310;2023-02-28T06:44:55;3.40;61.50
57566;DHT22;63999;43.882;-0.310;2023-02-28T06:47:21;3.30;61.30
57566;DHT22;63999;43.882;-0.310;2023-02-28T06:49:47;3.30;61.40
57566;DHT22;63999;43.882;-0.310;2023-02-28T06:52:13;3.30;61.50
57566;DHT22;63999;43.882;-0.310;2023-02-28T06:54:41;3.30;61.50
57566;DHT22;63999;43.882;-0.310;2023-02-28T06:57:10;3.30;61.60
57566;DHT22;63999;43.882;-0.310;2023-02-28T06:59:39;3.30;61.50
57566;DHT22;63999;43.882;-0.310;2023-02-28T07:02:07;3.30;61.50
57566;DHT22;63999;43.882;-0.310;2023-02-28T07:04:35;3.30;61.60
57566;DHT22;63999;43.882;-0.310;2023-02-28T07:07:03;3.30;61.60
57566;DHT22;63999;43.882;-0.310;2023-02-28T07:09:30;3.30;61.80
57566;DHT22;63999;43.882;-0.310;2023-02-28T07:11:59;3.20;61.90
57566;DHT22;63999;43.882;-0.310;2023-02-28T07:14:28;3.30;61.90
57566;DHT22;63999;43.882;-0.310;2023-02-28T07:16:57;3.20;61.80
57566;DHT22;63999;43.882;-0.310;2023-02-28T07:19:25;3.10;61.60
57566;DHT22;63999;43.882;-0.310;2023-02-28T07:21:54;3.20;61.50
57566;DHT22;63999;43.882;-0.310;2023-02-28T07:24:23;3.20;62.00
57566;DHT22;63999;43.882;-0.310;2023-02-28T07:26:56;3.20;61.70
57566;DHT22;63999;43.882;-0.310;2023-02-28T07:29:25;3.30;61.80
57566;DHT22;63999;43.882;-0.310;2023-02-28T07:31:51;3.30;61.50
57566;DHT22;63999;43.882;-0.310;2023-02-28T07:34:19;3.30;61.50
57566;DHT22;63999;43.882;-0.310;2023-02-28T07:36:46;3.30;61.40
57566;DHT22;63999;43.882;-0.310;2023-02-28T07:39:12;3.30;61.50
57566;DHT22;63999;43.882;-0.310;2023-02-28T07:41:38;3.30;61.40
57566;DHT22;63999;43.882;-0.310;2023-02-28T07:44:10;3.30;61.90
57566;DHT22;63999;43.882;-0.310;2023-02-28T07:46:36;3.30;61.50
57566;DHT22;63999;43.882;-0.310;2023-02-28T07:49:02;3.30;61.50
57566;DHT22;63999;43.882;-0.310;2023-02-28T07:51:31;3.30;61.60
57566;DHT22;63999;43.882;-0.310;2023-02-28T07:53:57;3.30;61.40
57566;DHT22;63999;43.882;-0.310;2023-02-28T07:56:23;3.30;61.90
57566;DHT22;63999;43.882;-0.310;2023-02-28T07:58:49;3.30;61.80
57566;DHT22;63999;43.882;-0.310;2023-02-28T08:01:14;3.30;61.40
57566;DHT22;63999;43.882;-0.310;2023-02-28T08:03:40;3.30;61.70
57566;DHT22;63999;43.882;-0.310;2023-02-28T08:06:09;3.30;61.30
57566;DHT22;63999;43.882;-0.310;2023-02-28T08:08:40;3.30;61.50
57566;DHT22;63999;43.882;-0.310;2023-02-28T08:11:06;3.30;61.60
57566;DHT22;63999;43.882;-0.310;2023-02-28T08:13:34;3.30;61.50
57566;DHT22;63999;43.882;-0.310;2023-02-28T08:16:01;3.30;61.50
57566;DHT22;63999;43.882;-0.310;2023-02-28T08:18:32;3.30;61.40
57566;DHT22;63999;43.882;-0.310;2023-02-28T08:20:57;3.30;61.90
57566;DHT22;63999;43.882;-0.310;2023-02-28T08:23:24;3.30;61.50
57566;DHT22;63999;43.882;-0.310;2023-02-28T08:25:59;3.30;61.80
57566;DHT22;63999;43.882;-0.310;2023-02-28T08:28:28;3.30;61.70
57566;DHT22;63999;43.882;-0.310;2023-02-28T08:30:57;3.30;61.80
57566;DHT22;63999;43.882;-0.310;2023-02-28T08:33:23;3.30;62.00
57566;DHT22;63999;43.882;-0.310;2023-02-28T08:35:53;3.30;61.90
57566;DHT22;63999;43.882;-0.310;2023-02-28T08:38:20;3.30;61.60
57566;DHT22;63999;43.882;-0.310;2023-02-28T08:40:47;3.30;61.60
57566;DHT22;63999;43.882;-0.310;2023-02-28T08:43:14;3.30;61.50
57566;DHT22;63999;43.882;-0.310;2023-02-28T08:45:40;3.30;61.70
57566;DHT22;63999;43.882;-0.310;2023-02-28T08:48:06;3.30;61.60
57566;DHT22;63999;43.882;-0.310;2023-02-28T08:50:33;3.30;61.70
57566;DHT22;63999;43.882;-0.310;2023-02-28T08:52:59;3.30;61.50
57566;DHT22;63999;43.882;-0.310;2023-02-28T08:55:25;3.30;61.50
57566;DHT22;63999;43.882;-0.310;2023-02-28T08:57:51;3.30;61.80
57566;DHT22;63999;43.882;-0.310;2023-02-28T09:00:18;3.40;61.90
57566;DHT22;63999;43.882;-0.310;2023-02-28T09:02:47;3.40;61.60
57566;DHT22;63999;43.882;-0.310;2023-02-28T09:05:12;3.40;61.60
57566;DHT22;63999;43.882;-0.310;2023-02-28T09:07:38;3.40;61.50
57566;DHT22;63999;43.882;-0.310;2023-02-28T09:10:04;3.40;61.20
57566;DHT22;63999;43.882;-0.310;2023-02-28T09:12:33;3.40;61.80
57566;DHT22;63999;43.882;-0.310;2023-02-28T09:15:00;3.40;61.50
57566;DHT22;63999;43.882;-0.310;2023-02-28T09:17:29;3.40;61.20
57566;DHT22;63999;43.882;-0.310;2023-02-28T09:20:02;3.40;61.70
57566;DHT22;63999;43.882;-0.310;2023-02-28T09:22:28;3.40;61.70
57566;DHT22;63999;43.882;-0.310;2023-02-28T09:24:54;3.40;61.90
57566;DHT22;63999;43.882;-0.310;2023-02-28T09:27:20;3.50;61.60
57566;DHT22;63999;43.882;-0.310;2023-02-28T09:29:46;3.50;61.50
57566;DHT22;63999;43.882;-0.310;2023-02-28T09:32:13;3.50;61.50
57566;DHT22;63999;43.882;-0.310;2023-02-28T09:34:39;3.50;61.60
57566;DHT22;63999;43.882;-0.310;2023-02-28T09:37:06;3.50;61.80
57566;DHT22;63999;43.882;-0.310;2023-02-28T09:39:32;3.60;61.80
57566;DHT22;63999;43.882;-0.310;2023-02-28T09:41:58;3.60;61.70
57566;DHT22;63999;43.882;-0.310;2023-02-28T09:44:44;3.60;61.40
57566;DHT22;63999;43.882;-0.310;2023-02-28T09:47:34;3.70;61.40
57566;DHT22;63999;43.882;-0.310;2023-02-28T09:52:55;3.70;61.30
57566;DHT22;63999;43.882;-0.310;2023-02-28T09:55:33;3.70;61.50
57566;DHT22;63999;43.882;-0.310;2023-02-28T09:58:03;3.70;61.40
57566;DHT22;63999;43.882;-0.310;2023-02-28T10:00:39;3.70;61.60
57566;DHT22;63999;43.882;-0.310;2023-02-28T10:05:48;3.80;61.50
57566;DHT22;63999;43.882;-0.310;2023-02-28T10:08:37;3.80;61.50
57566;DHT22;63999;43.882;-0.310;2023-02-28T10:11:12;3.80;61.40
57566;DHT22;63999;43.882;-0.310;2023-02-28T10:13:59;3.80;61.60
57566;DHT22;63999;43.882;-0.310;2023-02-28T10:16:40;3.90;61.50
57566;DHT22;63999;43.882;-0.310;2023-02-28T10:19:20;3.90;61.60
57566;DHT22;63999;43.882;-0.310;2023-02-28T10:21:56;3.90;61.60
57566;DHT22;63999;43.882;-0.310;2023-02-28T10:24:41;3.90;61.50
57566;DHT22;63999;43.882;-0.310;2023-02-28T10:27:17;3.90;61.50
57566;DHT22;63999;43.882;-0.310;2023-02-28T10:29:47;3.90;61.40
57566;DHT22;63999;43.882;-0.310;2023-02-28T10:32:17;3.90;61.60
57566;DHT22;63999;43.882;-0.310;2023-02-28T10:34:43;3.90;61.50
57566;DHT22;63999;43.882;-0.310;2023-02-28T10:37:11;4.00;61.60
57566;DHT22;63999;43.882;-0.310;2023-02-28T10:39:44;4.00;61.60
57566;DHT22;63999;43.882;-0.310;2023-02-28T10:42:22;4.00;61.60
57566;DHT22;63999;43.882;-0.310;2023-02-28T10:47:49;4.10;61.70
57566;DHT22;63999;43.882;-0.310;2023-02-28T10:50:42;4.10;61.80
57566;DHT22;63999;43.882;-0.310;2023-02-28T10:53:30;4.20;61.70
57566;DHT22;63999;43.882;-0.310;2023-02-28T10:58:56;4.20;61.70
57566;DHT22;63999;43.882;-0.310;2023-02-28T11:01:39;4.20;61.70
57566;DHT22;63999;43.882;-0.310;2023-02-28T11:06:58;4.20;62.00
57566;DHT22;63999;43.882;-0.310;2023-02-28T11:09:28;4.20;61.90
57566;DHT22;63999;43.882;-0.310;2023-02-28T11:11:55;4.30;61.90
57566;DHT22;63999;43.882;-0.310;2023-02-28T11:14:28;4.30;61.80
57566;DHT22;63999;43.882;-0.310;2023-02-28T11:17:21;4.30;61.80
57566;DHT22;63999;43.882;-0.310;2023-02-28T11:19:50;4.40;61.70
57566;DHT22;63999;43.882;-0.310;2023-02-28T11:22:26;4.40;61.70
57566;DHT22;63999;43.882;-0.310;2023-02-28T11:27:53;4.40;61.60
57566;DHT22;63999;43.882;-0.310;2023-02-28T11:32:50;4.50;61.60
57566;DHT22;63999;43.882;-0.310;2023-02-28T11:35:27;4.50;61.60
57566;DHT22;63999;43.882;-0.310;2023-02-28T11:37:55;4.50;61.60
57566;DHT22;63999;43.882;-0.310;2023-02-28T11:40:51;4.50;61.60
57566;DHT22;63999;43.882;-0.310;2023-02-28T11:43:44;4.50;61.60
57566;DHT22;63999;43.882;-0.310;2023-02-28T11:46:31;4.50;61.70
57566;DHT22;63999;43.882;-0.310;2023-02-28T11:58:05;4.70;61.30
57566;DHT22;63999;43.882;-0.310;2023-02-28T12:03:30;4.70;61.40
57566;DHT22;63999;43.882;-0.310;2023-02-28T12:09:46;4.70;61.50
57566;DHT22;63999;43.882;-0.310;2023-02-28T12:12:29;4.70;61.50
57566;DHT22;63999;43.882;-0.310;2023-02-28T12:20:52;4.70;61.80
57566;DHT22;63999;43.882;-0.310;2023-02-28T12:28:48;4.70;61.80
57566;DHT22;63999;43.882;-0.310;2023-02-28T12:31:21;4.70;61.80
57566;DHT22;63999;43.882;-0.310;2023-02-28T12:33:55;4.80;61.90
57566;DHT22;63999;43.882;-0.310;2023-02-28T12:36:22;4.80;61.90
57566;DHT22;63999;43.882;-0.310;2023-02-28T12:39:05;4.80;61.90
57566;DHT22;63999;43.882;-0.310;2023-02-28T12:41:58;4.80;61.90
57566;DHT22;63999;43.882;-0.310;2023-02-28T12:44:35;4.80;61.90
57566;DHT22;63999;43.882;-0.310;2023-02-28T12:47:05;4.80;62.00
57566;DHT22;63999;43.882;-0.310;2023-02-28T12:49:58;4.80;62.10
57566;DHT22;63999;43.882;-0.310;2023-02-28T13:10:07;4.90;62.00
57566;DHT22;63999;43.882;-0.310;2023-02-28T13:12:34;5.00;62.00
57566;DHT22;63999;43.882;-0.310;2023-02-28T13:15:26;5.00;61.90
57566;DHT22;63999;43.882;-0.310;2023-02-28T13:17:58;5.00;61.90
57566;DHT22;63999;43.882;-0.310;2023-02-28T13:20:26;5.00;61.90
57566;DHT22;63999;43.882;-0.310;2023-02-28T13:22:55;5.00;61.90
57566;DHT22;63999;43.882;-0.310;2023-02-28T13:27:57;5.00;61.80
57566;DHT22;63999;43.882;-0.310;2023-02-28T13:39:44;5.10;61.90
57566;DHT22;63999;43.882;-0.310;2023-02-28T13:41:49;5.10;61.90
57566;DHT22;63999;43.882;-0.310;2023-02-28T13:44:21;5.10;61.80
57566;DHT22;63999;43.882;-0.310;2023-02-28T13:59:38;5.30;61.10
57566;DHT22;63999;43.882;-0.310;2023-02-28T14:07:50;5.30;61.40
57566;DHT22;63999;43.882;-0.310;2023-02-28T14:13:00;5.30;61.30
57566;DHT22;63999;43.882;-0.310;2023-02-28T14:15:54;5.30;61.20
57566;DHT22;63999;43.882;-0.310;2023-02-28T14:18:24;5.30;61.20
57566;DHT22;63999;43.882;-0.310;2023-02-28T14:32:25;5.40;61.30
57566;DHT22;63999;43.882;-0.310;2023-02-28T14:37:10;5.40;61.20
57566;DHT22;63999;43.882;-0.310;2023-02-28T14:39:41;5.40;61.10
57566;DHT22;63999;43.882;-0.310;2023-02-28T14:42:29;5.40;61.20
57566;DHT22;63999;43.882;-0.310;2023-02-28T14:44:56;5.40;61.20
57566;DHT22;63999;43.882;-0.310;2023-02-28T14:47:25;5.50;61.30
57566;DHT22;63999;43.882;-0.310;2023-02-28T14:49:53;5.50;61.30
57566;DHT22;63999;43.882;-0.310;2023-02-28T14:52:22;5.50;61.20
57566;DHT22;63999;43.882;-0.310;2023-02-28T14:54:57;5.50;61.40
57566;DHT22;63999;43.882;-0.310;2023-02-28T14:57:32;5.50;61.10
57566;DHT22;63999;43.882;-0.310;2023-02-28T15:00:09;5.50;61.10
57566;DHT22;63999;43.882;-0.310;2023-02-28T15:02:39;5.50;61.00
57566;DHT22;63999;43.882;-0.310;2023-02-28T15:05:29;5.60;61.00
57566;DHT22;63999;43.882;-0.310;2023-02-28T15:08:14;5.50;61.10
57566;DHT22;63999;43.882;-0.310;2023-02-28T15:10:49;5.50;60.90
57566;DHT22;63999;43.882;-0.310;2023-02-28T15:13:17;5.60;60.80
57566;DHT22;63999;43.882;-0.310;2023-02-28T15:18:25;5.60;61.10
57566;DHT22;63999;43.882;-0.310;2023-02-28T15:20:53;5.60;61.10
57566;DHT22;63999;43.882;-0.310;2023-02-28T15:23:21;5.60;61.00
57566;DHT22;63999;43.882;-0.310;2023-02-28T15:25:48;5.60;61.10
57566;DHT22;63999;43.882;-0.310;2023-02-28T15:28:20;5.60;61.20
57566;DHT22;63999;43.882;-0.310;2023-02-28T15:33:29;5.60;61.30
57566;DHT22;63999;43.882;-0.310;2023-02-28T15:36:14;5.60;61.50
57566;DHT22;63999;43.882;-0.310;2023-02-28T15:38:53;5.60;61.20
57566;DHT22;63999;43.882;-0.310;2023-02-28T15:41:28;5.60;61.30
57566;DHT22;63999;43.882;-0.310;2023-02-28T15:47:00;5.60;61.20
57566;DHT22;63999;43.882;-0.310;2023-02-28T15:49:28;5.60;61.00
57566;DHT22;63999;43.882;-0.310;2023-02-28T15:51:58;5.70;60.90
57566;DHT22;63999;43.882;-0.310;2023-02-28T15:54:33;5.70;60.80
57566;DHT22;63999;43.882;-0.310;2023-02-28T15:57:07;5.70;60.70
57566;DHT22;63999;43.882;-0.310;2023-02-28T15:59:35;5.70;60.80
57566;DHT22;63999;43.882;-0.310;2023-02-28T16:02:16;5.70;60.80
57566;DHT22;63999;43.882;-0.310;2023-02-28T16:07:27;5.80;60.90
57566;DHT22;63999;43.882;-0.310;2023-02-28T16:09:53;5.80;60.90
57566;DHT22;63999;43.882;-0.310;2023-02-28T16:12:20;5.80;60.90
57566;DHT22;63999;43.882;-0.310;2023-02-28T16:14:52;5.80;60.80
57566;DHT22;63999;43.882;-0.310;2023-02-28T16:17:26;5.80;60.60
57566;DHT22;63999;43.882;-0.310;2023-02-28T16:19:53;5.80;60.50
57566;DHT22;63999;43.882;-0.310;2023-02-28T16:22:21;5.80;60.80
57566;DHT22;63999;43.882;-0.310;2023-02-28T16:24:48;5.80;61.00
57566;DHT22;63999;43.882;-0.310;2023-02-28T16:27:20;5.80;60.80
57566;DHT22;63999;43.882;-0.310;2023-02-28T16:29:47;5.80;61.00
57566;DHT22;63999;43.882;-0.310;2023-02-28T16:32:15;5.80;61.10
57566;DHT22;63999;43.882;-0.310;2023-02-28T16:34:45;5.80;61.00
57566;DHT22;63999;43.882;-0.310;2023-02-28T16:37:15;5.90;61.00
57566;DHT22;63999;43.882;-0.310;2023-02-28T16:39:46;5.80;61.00
57566;DHT22;63999;43.882;-0.310;2023-02-28T16:42:26;5.80;61.00
57566;DHT22;63999;43.882;-0.310;2023-02-28T16:45:04;5.80;61.00
57566;DHT22;63999;43.882;-0.310;2023-02-28T16:47:31;5.90;61.10
57566;DHT22;63999;43.882;-0.310;2023-02-28T16:50:00;5.80;61.00
57566;DHT22;63999;43.882;-0.310;2023-02-28T16:52:28;5.80;61.10
57566;DHT22;63999;43.882;-0.310;2023-02-28T16:54:54;5.90;61.30
57566;DHT22;63999;43.882;-0.310;2023-02-28T16:57:24;5.90;61.10
57566;DHT22;63999;43.882;-0.310;2023-02-28T16:59:53;5.90;61.00
57566;DHT22;63999;43.882;-0.310;2023-02-28T17:02:54;5.90;61.20
57566;DHT22;63999;43.882;-0.310;2023-02-28T17:05:37;5.90;61.40
57566;DHT22;63999;43.882;-0.310;2023-02-28T17:08:08;5.90;61.00
57566;DHT22;63999;43.882;-0.310;2023-02-28T17:10:45;5.90;60.90
57566;DHT22;63999;43.882;-0.310;2023-02-28T17:13:11;5.90;60.90
57566;DHT22;63999;43.882;-0.310;2023-02-28T17:15:38;5.90;61.10
57566;DHT22;63999;43.882;-0.310;2023-02-28T17:18:06;5.90;61.00
57566;DHT22;63999;43.882;-0.310;2023-02-28T17:20:35;5.90;61.20
57566;DHT22;63999;43.882;-0.310;2023-02-28T17:23:03;5.90;61.10
57566;DHT22;63999;43.882;-0.310;2023-02-28T17:25:30;5.90;61.10
57566;DHT22;63999;43.882;-0.310;2023-02-28T17:27:57;5.90;61.00
57566;DHT22;63999;43.882;-0.310;2023-02-28T17:30:26;5.90;61.40
57566;DHT22;63999;43.882;-0.310;2023-02-28T17:32:56;5.90;60.90
57566;DHT22;63999;43.882;-0.310;2023-02-28T17:35:27;6.00;61.30
57566;DHT22;63999;43.882;-0.310;2023-02-28T17:37:57;6.00;60.90
57566;DHT22;63999;43.882;-0.310;2023-02-28T17:40:28;6.00;61.20
57566;DHT22;63999;43.882;-0.310;2023-02-28T17:42:58;6.00;61.50
57566;DHT22;63999;43.882;-0.310;2023-02-28T17:45:27;6.00;61.30
57566;DHT22;63999;43.882;-0.310;2023-02-28T17:47:57;5.90;60.80
57566;DHT22;63999;43.882;-0.310;2023-02-28T17:50:27;5.90;60.90
57566;DHT22;63999;43.882;-0.310;2023-02-28T17:52:55;5.90;60.60
57566;DHT22;63999;43.882;-0.310;2023-02-28T17:55:21;5.90;61.20
57566;DHT22;63999;43.882;-0.310;2023-02-28T17:57:47;5.90;60.70
57566;DHT22;63999;43.882;-0.310;2023-02-28T18:00:15;5.80;61.10
57566;DHT22;63999;43.882;-0.310;2023-02-28T18:02:42;5.80;61.10
57566;DHT22;63999;43.882;-0.310;2023-02-28T18:05:09;5.90;61.20
57566;DHT22;63999;43.882;-0.310;2023-02-28T18:07:37;5.90;61.10
57566;DHT22;63999;43.882;-0.310;2023-02-28T18:10:05;5.90;61.10
57566;DHT22;63999;43.882;-0.310;2023-02-28T18:12:31;5.90;61.00
57566;DHT22;63999;43.882;-0.310;2023-02-28T18:14:58;5.80;61.30
57566;DHT22;63999;43.882;-0.310;2023-02-28T18:17:24;5.90;61.20
57566;DHT22;63999;43.882;-0.310;2023-02-28T18:19:50;5.90;61.20
57566;DHT22;63999;43.882;-0.310;2023-02-28T18:22:16;5.90;61.20
57566;DHT22;63999;43.882;-0.310;2023-02-28T18:24:42;5.90;61.10
57566;DHT22;63999;43.882;-0.310;2023-02-28T18:27:08;5.80;61.30
57566;DHT22;63999;43.882;-0.310;2023-02-28T18:29:35;5.90;60.80
57566;DHT22;63999;43.882;-0.310;2023-02-28T18:32:02;5.90;61.40